Time;durP1;ratioP1;P1;durP2;ratioP2;P2;SDS_P1;SDS_P2;PMS_P1;PMS_P2;Temp;Humidity;BMP_temperature;BMP_pressure;BME280_temperature;BME280_humidity;BME280_pressure;Samples;Min_cycle;Max_cycle;Signal;HPM_P1;HPM_P2
2023/06/25 00:00:48;;;;;;;;;6.80;6.80;;;;;21.98;56.01;99513.63;4886859;29;8901;-89
2023/06/25 00:03:39;;;;;;;;;7.40;7.20;;;;;22.09;55.73;99513.75;4934347;29;8949;-87
2023/06/25 00:06:08;;;;;;;;;8.60;7.00;;;;;22.03;55.96;99522.19;4934952;29;8867;-90
2023/06/25 00:08:38;;;;;;;;;7.80;7.80;;;;;21.99;55.70;99516.22;4922479;29;8866;-87
2023/06/25 00:11:07;;;;;;;;;8.00;8.00;;;;;21.98;55.64;99524.34;4906101;29;8891;-88
2023/06/25 00:13:37;;;;;;;;;8.00;8.00;;;;;21.98;55.66;99525.19;4945954;29;8981;-87
2023/06/25 00:16:07;;;;;;;;;10.00;9.60;;;;;21.80;56.27;99527.28;4882765;29;8934;-88
2023/06/25 00:18:38;;;;;;;;;8.00;8.00;;;;;21.60;56.79;99522.47;4933002;29;8858;-89
2023/06/25 00:21:07;;;;;;;;;8.00;8.00;;;;;21.64;56.47;99516.78;4914761;29;8841;-89
2023/06/25 00:23:37;;;;;;;;;7.80;7.80;;;;;21.67;56.42;99515.72;4898829;29;9619;-89
2023/06/25 00:26:06;;;;;;;;;8.00;8.00;;;;;21.70;55.98;99528.91;4930969;29;8861;-87
2023/06/25 00:28:37;;;;;;;;;7.60;7.60;;;;;21.56;56.58;99523.56;4912056;29;8885;-87
2023/06/25 00:31:06;;;;;;;;;9.60;9.60;;;;;21.72;56.04;99520.78;4915266;29;8998;-86
2023/06/25 00:33:35;;;;;;;;;8.00;7.00;;;;;21.71;56.21;99513.69;4923765;29;8859;-87
2023/06/25 00:36:07;;;;;;;;;7.80;7.80;;;;;21.52;57.01;99514.06;4935427;29;8977;-88
2023/06/25 00:38:38;;;;;;;;;6.80;6.80;;;;;21.44;57.36;99510.06;4917873;29;9026;-87
2023/06/25 00:41:09;;;;;;;;;9.20;8.40;;;;;21.51;56.71;99515.88;4917265;29;8891;-86
2023/06/25 00:43:42;;;;;;;;;10.00;7.80;;;;;21.41;57.18;99509.44;4916159;29;8868;-88
2023/06/25 00:46:15;;;;;;;;;8.60;8.00;;;;;21.35;57.37;99510.72;4917832;29;8938;-87
2023/06/25 00:48:47;;;;;;;;;6.00;6.00;;;;;21.30;57.57;99507.47;4916390;29;8855;-90
2023/06/25 00:51:21;;;;;;;;;7.80;7.80;;;;;21.42;57.37;99509.31;4900140;29;8986;-86
2023/06/25 00:53:51;;;;;;;;;8.00;7.00;;;;;21.58;56.88;99506.47;4916506;29;8894;-90
2023/06/25 00:56:27;;;;;;;;;9.00;8.20;;;;;21.67;56.22;99507.69;4912248;29;8955;-87
2023/06/25 00:59:01;;;;;;;;;7.00;7.00;;;;;21.67;56.45;99525.56;4930692;29;8882;-88
2023/06/25 01:01:39;;;;;;;;;6.40;6.40;;;;;21.77;56.25;99515.97;4915357;29;8867;-86
2023/06/25 01:04:22;;;;;;;;;8.60;7.60;;;;;21.84;56.06;99518.13;4931515;29;9654;-88
2023/06/25 01:07:00;;;;;;;;;9.00;9.00;;;;;21.83;55.95;99516.41;4917089;29;8875;-84
2023/06/25 01:09:32;;;;;;;;;8.60;8.40;;;;;21.80;55.68;99511.25;4912452;29;8875;-87
2023/06/25 01:12:02;;;;;;;;;8.20;8.20;;;;;21.70;56.16;99502.16;4935179;29;8887;-86
2023/06/25 01:14:33;;;;;;;;;6.00;6.00;;;;;21.65;56.33;99490.88;4910980;29;8863;-86
2023/06/25 01:17:05;;;;;;;;;7.20;7.20;;;;;21.30;57.33;99486.09;4894731;29;8890;-88
2023/06/25 01:19:35;;;;;;;;;7.80;7.80;;;;;20.42;60.77;99483.69;4893828;29;8890;-86
2023/06/25 01:22:08;;;;;;;;;6.40;5.60;;;;;20.26;61.50;99483.81;4882320;29;8879;-89
2023/06/25 01:24:42;;;;;;;;;7.60;7.60;;;;;20.59;60.56;99466.59;4911932;29;9046;-86
2023/06/25 01:27:12;;;;;;;;;6.20;6.20;;;;;20.91;59.30;99469.00;4895713;29;8909;-88
2023/06/25 01:29:44;;;;;;;;;8.00;8.00;;;;;21.21;57.92;99471.50;4895665;29;8998;-88
2023/06/25 01:32:13;;;;;;;;;9.40;9.40;;;;;20.92;58.35;99473.44;4894898;29;8883;-87
2023/06/25 01:34:42;;;;;;;;;8.00;8.00;;;;;20.77;59.32;99463.72;4894115;29;8862;-86
2023/06/25 01:37:17;;;;;;;;;7.00;7.00;;;;;20.89;58.22;99462.91;4893736;29;8889;-86
2023/06/25 01:39:50;;;;;;;;;8.00;8.00;;;;;21.25;57.38;99451.63;4894350;29;8878;-85
2023/06/25 01:42:19;;;;;;;;;8.60;7.00;;;;;21.32;57.01;99454.75;4894740;29;8920;-86
2023/06/25 01:44:48;;;;;;;;;9.00;9.00;;;;;21.40;56.53;99454.22;4908027;29;8850;-83
2023/06/25 01:47:18;;;;;;;;;9.20;9.20;;;;;20.87;58.34;99460.34;4925868;29;8875;-85
2023/06/25 01:49:47;;;;;;;;;8.60;8.20;;;;;21.05;58.14;99452.97;4936953;29;9616;-86
2023/06/25 01:52:16;;;;;;;;;8.00;7.80;;;;;21.04;58.40;99451.25;4900638;29;8990;-84
2023/06/25 01:54:45;;;;;;;;;9.00;8.00;;;;;20.99;58.36;99457.84;4932281;29;8887;-86
2023/06/25 01:57:18;;;;;;;;;9.00;6.80;;;;;21.01;58.41;99451.47;4929049;29;8863;-85
2023/06/25 01:59:49;;;;;;;;;8.00;8.00;;;;;21.18;57.93;99450.34;4913876;29;8899;-86
2023/06/25 02:02:19;;;;;;;;;8.60;8.60;;;;;21.16;57.78;99448.72;4916070;29;8879;-87
2023/06/25 02:04:48;;;;;;;;;6.80;6.80;;;;;21.36;57.27;99453.59;4916065;29;8913;-86
2023/06/25 02:07:17;;;;;;;;;7.60;7.60;;;;;21.23;57.37;99450.88;4913929;29;8887;-86
2023/06/25 02:09:47;;;;;;;;;8.00;8.00;;;;;21.28;57.28;99441.72;4929287;29;8864;-84
2023/06/25 02:12:16;;;;;;;;;7.60;7.60;;;;;20.98;57.94;99448.97;4868340;29;8894;-85
2023/06/25 02:15:08;;;;;;;;;7.20;7.20;;;;;21.24;57.63;99443.72;4900424;29;8943;-84
2023/06/25 02:17:39;;;;;;;;;8.00;8.00;;;;;21.22;57.14;99451.00;4853080;29;8952;-85
2023/06/25 02:20:10;;;;;;;;;7.00;7.00;;;;;21.32;57.30;99452.09;4899028;29;8862;-86
2023/06/25 02:22:39;;;;;;;;;8.40;8.20;;;;;21.25;57.30;99456.13;4899365;29;8881;-87
2023/06/25 02:25:09;;;;;;;;;8.60;8.40;;;;;21.43;56.93;99454.03;4899722;29;8880;-87
2023/06/25 02:27:38;;;;;;;;;10.80;7.60;;;;;21.37;56.74;99443.72;4915203;29;8885;-85
2023/06/25 02:30:11;;;;;;;;;7.80;7.80;;;;;21.32;56.78;99452.09;4924932;29;8849;-86
2023/06/25 02:32:40;;;;;;;;;7.00;7.00;;;;;21.18;56.99;99452.13;4924772;29;8871;-87
2023/06/25 02:35:10;;;;;;;;;7.00;7.00;;;;;21.05;57.55;99452.13;4914116;29;8863;-85
2023/06/25 02:37:40;;;;;;;;;8.40;8.20;;;;;21.22;57.10;99451.00;4928977;29;9223;-86
2023/06/25 02:40:11;;;;;;;;;8.60;8.60;;;;;21.25;56.85;99448.09;4913212;29;8887;-86
2023/06/25 02:42:40;;;;;;;;;8.40;8.40;;;;;21.23;56.62;99450.88;4913552;29;8887;-84
2023/06/25 02:45:13;;;;;;;;;8.80;7.00;;;;;20.78;58.37;99447.56;4914291;29;8860;-85
2023/06/25 02:47:42;;;;;;;;;9.80;7.40;;;;;20.62;58.61;99434.38;4897000;29;9030;-85
2023/06/25 02:50:13;;;;;;;;;9.00;7.80;;;;;20.23;60.49;99437.75;4865510;29;8981;-86
2023/06/25 02:52:44;;;;;;;;;8.00;8.00;;;;;20.24;60.27;99440.34;4911660;29;8879;-85
2023/06/25 02:55:15;;;;;;;;;8.00;8.00;;;;;19.95;61.45;99433.25;4912172;29;8874;-85
2023/06/25 02:58:04;;;;;;;;;7.00;7.00;;;;;19.99;60.92;99435.66;4890946;29;8879;-85
2023/06/25 03:00:35;;;;;;;;;7.60;7.60;;;;;19.74;61.95;99441.63;4898735;29;8884;-85
2023/06/25 03:03:04;;;;;;;;;10.60;8.80;;;;;19.46;63.17;99431.72;4877226;29;9705;-85
2023/06/25 03:05:33;;;;;;;;;9.00;8.20;;;;;19.06;64.75;99440.25;4861951;29;8982;-85
2023/06/25 03:08:03;;;;;;;;;8.00;7.60;;;;;19.22;64.15;99432.25;4892682;29;8868;-88
2023/06/25 03:10:33;;;;;;;;;10.20;9.20;;;;;19.52;63.00;99423.41;4877383;29;8907;-86
2023/06/25 03:13:02;;;;;;;;;10.40;10.00;;;;;19.60;62.49;99423.81;4835793;29;8864;-85
2023/06/25 03:15:32;;;;;;;;;9.80;9.80;;;;;19.86;61.49;99429.38;4877779;29;8931;-85
2023/06/25 03:18:02;;;;;;;;;6.80;6.80;;;;;20.06;60.83;99430.78;4878404;29;8871;-85
2023/06/25 03:20:32;;;;;;;;;9.20;8.20;;;;;20.12;60.58;99424.22;4873270;29;8896;-88
2023/06/25 03:23:01;;;;;;;;;9.60;9.20;;;;;19.70;62.12;99429.44;4869845;29;8905;-86
2023/06/25 03:25:32;;;;;;;;;7.00;7.00;;;;;19.70;61.92;99438.28;4877339;29;8845;-86
2023/06/25 03:28:21;;;;;;;;;8.80;8.80;;;;;19.79;61.59;99431.53;4854713;29;9615;-84
2023/06/25 03:30:51;;;;;;;;;9.80;9.00;;;;;20.10;60.50;99434.97;4854968;29;8933;-86
2023/06/25 03:33:23;;;;;;;;;10.00;9.00;;;;;20.42;59.44;99434.78;4872986;29;8873;-88
2023/06/25 03:35:53;;;;;;;;;8.40;8.40;;;;;20.39;59.18;99433.19;4890791;29;8897;-87
2023/06/25 03:38:22;;;;;;;;;9.80;9.80;;;;;20.47;58.82;99438.03;4892681;29;8879;-84
2023/06/25 03:40:53;;;;;;;;;9.40;8.60;;;;;19.73;60.92;99437.25;4888435;29;8910;-85
2023/06/25 03:43:22;;;;;;;;;5.20;5.20;;;;;18.88;64.86;99428.88;4845085;29;8966;-88
2023/06/25 03:45:52;;;;;;;;;9.60;9.60;;;;;19.09;63.94;99423.25;4842919;29;8864;-87
2023/06/25 03:48:21;;;;;;;;;8.00;8.00;;;;;18.88;64.73;99422.69;4846343;29;9022;-85
2023/06/25 03:50:52;;;;;;;;;10.20;9.20;;;;;19.27;63.69;99427.53;4845722;29;8926;-87
2023/06/25 03:53:21;;;;;;;;;16.80;16.80;;;;;19.70;62.27;99419.63;4845200;29;9611;-86
2023/06/25 03:55:51;;;;;;;;;18.20;16.40;;;;;19.63;62.15;99422.75;4876615;29;8974;-84
2023/06/25 03:58:22;;;;;;;;;8.40;8.40;;;;;19.82;61.35;99414.47;4815977;29;8879;-84
2023/06/25 04:00:52;;;;;;;;;8.20;8.00;;;;;19.85;61.43;99411.63;4846062;29;8887;-84
2023/06/25 04:03:21;;;;;;;;;10.40;9.40;;;;;19.83;61.18;99406.38;4860340;29;9073;-86
2023/06/25 04:05:53;;;;;;;;;10.80;10.60;;;;;19.98;60.65;99407.25;4875033;29;8869;-85
2023/06/25 04:08:22;;;;;;;;;7.40;7.00;;;;;20.18;60.23;99408.69;4913737;29;8964;-86
2023/06/25 04:10:53;;;;;;;;;8.20;8.20;;;;;19.60;62.08;99409.63;4899982;29;8862;-86
2023/06/25 04:13:22;;;;;;;;;7.80;7.60;;;;;19.77;61.67;99405.94;4916454;29;9026;-87
2023/06/25 04:15:53;;;;;;;;;8.00;8.00;;;;;20.13;60.17;99401.91;4905829;29;8969;-87
2023/06/25 04:18:23;;;;;;;;;7.20;7.20;;;;;20.23;59.97;99401.25;4914399;29;8856;-86
2023/06/25 04:20:54;;;;;;;;;7.80;7.40;;;;;20.48;59.50;99403.22;4917821;29;8900;-87
2023/06/25 04:23:24;;;;;;;;;8.20;7.20;;;;;20.43;59.09;99396.47;4918328;29;9001;-83
2023/06/25 04:25:54;;;;;;;;;9.60;9.40;;;;;20.18;59.95;99397.13;4887918;29;8850;-85
2023/06/25 04:28:24;;;;;;;;;10.80;10.40;;;;;20.37;59.28;99394.16;4869288;29;8965;-90
2023/06/25 04:30:54;;;;;;;;;18.00;16.40;;;;;20.42;59.13;99398.25;4865377;29;8849;-87
2023/06/25 04:33:24;;;;;;;;;10.20;10.20;;;;;20.25;59.41;99388.66;4896987;29;8912;-87
2023/06/25 04:35:55;;;;;;;;;12.60;10.60;;;;;20.29;59.22;99382.19;4910693;29;8969;-85
2023/06/25 04:38:24;;;;;;;;;8.40;8.40;;;;;20.57;58.49;99395.56;4898643;29;8889;-89
2023/06/25 04:40:55;;;;;;;;;7.40;7.40;;;;;20.19;59.46;99402.38;4899443;29;8949;-87
2023/06/25 04:43:25;;;;;;;;;8.80;8.80;;;;;20.03;60.19;99401.66;4884976;29;8891;-88
2023/06/25 04:45:58;;;;;;;;;8.00;8.00;;;;;20.22;59.61;99394.19;4928151;29;8831;-85
2023/06/25 04:48:28;;;;;;;;;5.20;5.00;;;;;20.62;58.92;99393.47;4920240;29;8863;-88
2023/06/25 04:50:59;;;;;;;;;14.80;14.40;;;;;20.58;58.32;99387.47;4880757;29;8923;-88
2023/06/25 04:53:28;;;;;;;;;10.20;10.20;;;;;20.80;57.21;99386.91;4876609;29;9008;-92
2023/06/25 04:56:02;;;;;;;;;8.80;8.80;;;;;20.55;58.06;99381.47;4876106;29;8873;-92
2023/06/25 04:58:31;;;;;;;;;10.40;10.40;;;;;20.52;57.62;99376.31;4880570;29;10119;-89
2023/06/25 05:01:01;;;;;;;;;8.80;8.20;;;;;20.53;58.25;99378.88;4903468;29;8889;-89
2023/06/25 05:03:31;;;;;;;;;8.80;8.80;;;;;20.90;57.17;99384.47;4937092;29;8951;-91
2023/06/25 05:06:03;;;;;;;;;16.00;15.40;;;;;20.31;58.61;99383.88;4925430;29;9620;-89
2023/06/25 05:08:33;;;;;;;;;15.20;15.20;;;;;20.27;59.04;99384.09;4908120;29;8996;-87
2023/06/25 05:11:02;;;;;;;;;9.20;8.00;;;;;20.71;58.00;99389.31;4904832;29;8882;-89
2023/06/25 05:13:56;;;;;;;;;10.40;10.40;;;;;21.07;56.25;99394.06;4887425;29;8893;-86
2023/06/25 05:16:25;;;;;;;;;29.80;25.80;;;;;21.13;56.33;99390.97;4911869;29;8996;-87
2023/06/25 05:18:55;;;;;;;;;8.40;8.40;;;;;21.18;55.80;99396.00;4867330;29;8953;-88
2023/06/25 05:21:30;;;;;;;;;8.40;8.40;;;;;20.73;57.45;99398.94;4866662;29;8890;-87
2023/06/25 05:24:19;;;;;;;;;10.60;10.00;;;;;20.94;56.58;99391.38;4882535;29;8913;-89
2023/06/25 05:26:49;;;;;;;;;8.00;8.00;;;;;21.09;56.02;99386.81;4880256;29;8965;-88
2023/06/25 05:29:19;;;;;;;;;10.00;9.00;;;;;20.97;56.54;99398.31;4888561;29;8881;-88
2023/06/25 05:31:48;;;;;;;;;17.80;17.80;;;;;21.29;55.43;99396.13;4865924;29;9827;-87
2023/06/25 05:34:17;;;;;;;;;11.80;10.00;;;;;21.19;56.02;99395.91;4859237;29;8881;-88
2023/06/25 05:36:49;;;;;;;;;10.60;10.60;;;;;20.19;59.26;99398.84;4884154;29;9091;-87
2023/06/25 05:39:20;;;;;;;;;8.60;8.60;;;;;20.86;56.88;99393.66;4879454;29;9015;-89
2023/06/25 05:41:50;;;;;;;;;11.80;11.80;;;;;20.80;56.32;99392.25;4851930;29;9074;-87
2023/06/25 05:44:19;;;;;;;;;10.00;10.00;;;;;20.75;56.79;99390.84;4881618;29;8888;-88
2023/06/25 05:46:50;;;;;;;;;11.60;10.80;;;;;20.77;56.86;99388.94;4899352;29;8898;-86
2023/06/25 05:49:22;;;;;;;;;10.80;9.80;;;;;20.67;57.18;99389.53;4875740;29;8948;-84
2023/06/25 05:51:53;;;;;;;;;9.00;9.00;;;;;21.41;55.26;99394.47;4880811;29;8874;-86
2023/06/25 05:54:22;;;;;;;;;8.80;8.80;;;;;21.95;53.87;99401.44;4877096;29;8922;-87
2023/06/25 05:56:51;;;;;;;;;8.80;8.80;;;;;21.04;55.57;99395.13;4861135;29;8969;-86
2023/06/25 05:59:20;;;;;;;;;10.40;9.80;;;;;20.97;55.97;99396.47;4882127;29;8881;-87
2023/06/25 06:01:51;;;;;;;;;10.60;10.00;;;;;21.05;55.52;99396.84;4877877;29;8880;-86
2023/06/25 06:04:21;;;;;;;;;10.60;10.60;;;;;20.77;56.04;99388.94;4882662;29;8863;-88
2023/06/25 06:07:11;;;;;;;;;10.60;10.60;;;;;20.86;56.11;99389.16;4884222;29;8855;-85
2023/06/25 06:09:41;;;;;;;;;11.20;10.40;;;;;21.38;54.34;99392.81;4870910;29;8867;-87
2023/06/25 06:12:13;;;;;;;;;11.00;11.00;;;;;21.28;54.35;99391.75;4870829;29;8902;-87
2023/06/25 06:14:43;;;;;;;;;10.40;10.40;;;;;21.37;54.27;99390.25;4867470;29;8879;-87
2023/06/25 06:17:14;;;;;;;;;15.40;15.00;;;;;20.35;57.30;99398.75;4893353;29;8866;-88
2023/06/25 06:19:43;;;;;;;;;13.20;12.00;;;;;20.51;57.28;99402.16;4876295;29;8886;-87
2023/06/25 06:22:15;;;;;;;;;17.00;16.20;;;;;20.98;56.17;99400.03;4876213;29;8913;-88
2023/06/25 06:24:48;;;;;;;;;10.40;10.40;;;;;20.65;56.25;99410.13;4860002;29;8960;-88
2023/06/25 06:27:19;;;;;;;;;12.00;11.40;;;;;20.53;56.65;99410.06;4883608;29;9034;-90
2023/06/25 06:29:50;;;;;;;;;11.60;10.80;;;;;20.08;57.77;99415.53;4899267;29;8961;-89
2023/06/25 06:32:22;;;;;;;;;12.00;10.40;;;;;19.70;59.51;99424.09;4899905;29;8959;-87
2023/06/25 06:34:55;;;;;;;;;11.20;11.20;;;;;20.09;58.48;99404.75;4912046;29;8872;-86
2023/06/25 06:37:26;;;;;;;;;14.60;14.60;;;;;19.92;58.38;99412.97;4883052;29;8886;-87
2023/06/25 06:39:59;;;;;;;;;13.40;13.00;;;;;19.50;60.13;99419.97;4854134;29;9005;-88
2023/06/25 06:42:34;;;;;;;;;10.00;10.00;;;;;19.84;58.75;99413.44;4890008;29;8878;-88
2023/06/25 06:45:11;;;;;;;;;12.40;11.60;;;;;19.89;59.05;99415.81;4891054;29;8889;-86
2023/06/25 06:47:42;;;;;;;;;14.00;14.00;;;;;19.47;60.02;99414.78;4869160;29;8959;-90
2023/06/25 06:50:12;;;;;;;;;12.60;12.40;;;;;19.17;60.75;99417.47;4874643;29;8865;-90
2023/06/25 06:53:05;;;;;;;;;14.80;13.80;;;;;19.09;61.56;99417.94;4862876;29;9022;-90
2023/06/25 06:55:36;;;;;;;;;13.80;11.20;;;;;19.32;61.13;99401.44;4874905;29;8914;-86
2023/06/25 06:58:08;;;;;;;;;14.40;12.60;;;;;19.16;60.96;99415.75;4904610;29;8949;-86
2023/06/25 07:00:38;;;;;;;;;18.60;17.80;;;;;18.20;64.34;99420.28;4877262;29;8898;-89
2023/06/25 07:03:08;;;;;;;;;14.20;14.00;;;;;18.68;63.47;99416.66;4910858;29;8874;-88
2023/06/25 07:05:38;;;;;;;;;12.60;11.80;;;;;18.89;62.55;99424.41;4932298;29;8937;-87
2023/06/25 07:08:08;;;;;;;;;15.20;15.20;;;;;18.90;63.27;99416.31;4894201;29;8866;-87
2023/06/25 07:10:38;;;;;;;;;12.80;11.80;;;;;19.19;62.16;99420.91;4924308;29;8939;-89
2023/06/25 07:13:09;;;;;;;;;12.40;12.40;;;;;19.59;60.69;99410.56;4941855;29;8859;-89
2023/06/25 07:15:40;;;;;;;;;18.40;17.80;;;;;19.62;59.83;99407.72;4878966;29;8878;-87
2023/06/25 07:18:11;;;;;;;;;12.40;11.60;;;;;20.19;58.21;99410.38;4848726;29;9042;-88
2023/06/25 07:20:40;;;;;;;;;15.60;13.40;;;;;19.63;59.67;99410.28;4846525;29;8899;-87
2023/06/25 07:23:10;;;;;;;;;14.80;14.20;;;;;19.94;59.37;99403.06;4865554;29;8883;-87
2023/06/25 07:25:42;;;;;;;;;13.60;13.20;;;;;20.10;57.88;99401.16;4864694;29;8875;-87
2023/06/25 07:28:34;;;;;;;;;12.60;11.60;;;;;19.59;59.70;99407.88;4836362;29;8903;-88
2023/06/25 07:31:03;;;;;;;;;16.40;14.80;;;;;20.22;58.18;99404.84;4830685;29;8930;-89
2023/06/25 07:33:33;;;;;;;;;17.80;15.40;;;;;20.63;56.38;99404.03;4844873;29;8902;-88
2023/06/25 07:36:35;;;;;;;;;9.60;9.20;;;;;20.79;56.25;99403.88;4849453;29;8871;-86
2023/06/25 07:39:08;;;;;;;;;7.80;7.80;;;;;20.21;58.43;99403.13;4838207;29;8904;-87
2023/06/25 07:41:39;;;;;;;;;13.40;13.40;;;;;20.33;58.11;99398.00;4851196;29;8882;-86
2023/06/25 07:44:16;;;;;;;;;11.20;11.20;;;;;21.30;55.12;99394.34;4844139;29;8897;-87
2023/06/25 07:47:11;;;;;;;;;15.40;15.40;;;;;20.92;55.55;99395.94;4868346;29;8987;-87
2023/06/25 07:49:43;;;;;;;;;12.40;12.00;;;;;21.20;54.19;99394.97;4860296;29;8883;-86
2023/06/25 07:52:13;;;;;;;;;12.60;11.40;;;;;20.76;55.79;99389.88;4861175;29;8898;-89
2023/06/25 07:54:43;;;;;;;;;13.80;13.80;;;;;21.60;53.32;99388.72;4849878;29;8887;-88
2023/06/25 07:57:34;;;;;;;;;13.20;12.60;;;;;20.91;55.36;99380.84;4852048;29;8867;-86
2023/06/25 08:00:04;;;;;;;;;13.60;13.60;;;;;21.36;53.90;99383.22;4858499;29;8859;-85
2023/06/25 08:02:43;;;;;;;;;17.40;14.00;;;;;20.72;55.33;99385.69;4861452;29;8982;-87
2023/06/25 08:05:12;;;;;;;;;15.00;14.00;;;;;20.20;57.45;99388.09;4864714;29;8882;-87
2023/06/25 08:07:41;;;;;;;;;15.40;15.40;;;;;20.52;56.19;99387.88;4843623;29;9048;-86
2023/06/25 08:10:11;;;;;;;;;17.00;15.60;;;;;20.33;56.17;99387.31;4842612;29;8930;-87
2023/06/25 08:12:42;;;;;;;;;13.80;13.40;;;;;20.37;56.59;99387.03;4858868;29;8885;-86
2023/06/25 08:15:12;;;;;;;;;16.60;14.40;;;;;20.50;56.00;99392.44;4863575;29;8882;-87
2023/06/25 08:17:40;;;;;;;;;15.20;15.00;;;;;20.31;57.37;99386.56;4865105;29;9004;-87
2023/06/25 08:20:11;;;;;;;;;26.60;20.80;;;;;21.09;55.42;99384.13;4878992;29;8877;-86
2023/06/25 08:22:41;;;;;;;;;17.80;17.80;;;;;21.57;53.45;99399.59;4887683;29;8937;-84
2023/06/25 08:25:23;;;;;;;;;18.00;15.60;;;;;21.96;51.63;99387.09;4895846;29;8896;-88
2023/06/25 08:27:56;;;;;;;;;13.60;13.60;;;;;22.31;50.59;99397.97;4877404;29;8889;-86
2023/06/25 08:30:30;;;;;;;;;15.00;13.20;;;;;22.71;49.75;99399.53;4862169;29;8885;-87
2023/06/25 08:33:01;;;;;;;;;15.40;14.00;;;;;21.72;52.38;99398.56;4876628;29;8889;-86
2023/06/25 08:35:30;;;;;;;;;21.00;18.20;;;;;21.52;52.24;99399.03;4876679;29;8886;-87
2023/06/25 08:37:59;;;;;;;;;15.00;14.00;;;;;21.39;52.78;99402.59;4860515;29;8881;-86
2023/06/25 08:40:32;;;;;;;;;15.20;14.80;;;;;21.96;51.12;99400.47;4859930;29;8893;-86
2023/06/25 08:43:04;;;;;;;;;49.25;40.25;;;;;22.28;50.63;99395.53;4905243;29;8907;-86
2023/06/25 08:45:33;;;;;;;;;16.20;11.00;;;;;22.70;49.19;99400.53;4916508;29;8888;-84
2023/06/25 08:48:06;;;;;;;;;13.00;13.00;;;;;22.23;50.89;99409.19;4915411;29;8925;-85
2023/06/25 08:50:36;;;;;;;;;16.20;14.60;;;;;22.35;49.89;99394.13;4930310;29;8863;-85
2023/06/25 08:53:05;;;;;;;;;14.80;14.60;;;;;22.83;48.73;99395.09;4913643;29;9026;-86
2023/06/25 08:55:36;;;;;;;;;13.20;13.20;;;;;23.37;47.50;99397.28;4915726;29;8847;-86
2023/06/25 08:58:07;;;;;;;;;14.80;14.20;;;;;22.69;48.64;99386.25;4916549;29;8890;-85
2023/06/25 09:00:37;;;;;;;;;14.60;14.60;;;;;22.51;49.25;99396.53;4917984;29;8938;-84
2023/06/25 09:03:07;;;;;;;;;17.00;16.40;;;;;23.22;47.40;99391.25;4926484;29;8887;-84
2023/06/25 09:05:37;;;;;;;;;13.00;13.00;;;;;23.53;47.04;99394.31;4927631;29;8928;-86
2023/06/25 09:08:16;;;;;;;;;14.80;14.00;;;;;23.63;45.85;99402.50;4931701;29;8974;-84
2023/06/25 09:10:52;;;;;;;;;18.20;16.00;;;;;22.02;49.94;99402.72;4899736;29;8947;-87
2023/06/25 09:13:23;;;;;;;;;16.80;15.40;;;;;21.82;50.76;99396.97;4915930;29;8871;-85
2023/06/25 09:16:00;;;;;;;;;16.20;14.60;;;;;21.85;50.48;99401.22;4896701;29;8909;-84
2023/06/25 09:18:29;;;;;;;;;16.60;16.20;;;;;21.17;52.62;99400.50;4929096;29;9651;-84
2023/06/25 09:21:02;;;;;;;;;14.80;13.60;;;;;21.40;52.35;99393.56;4928665;29;8867;-87
2023/06/25 09:23:32;;;;;;;;;15.20;15.00;;;;;21.56;52.07;99384.50;4914458;29;8921;-84
2023/06/25 09:26:09;;;;;;;;;16.00;14.40;;;;;21.86;50.29;99392.22;4929659;29;8871;-84
2023/06/25 09:28:51;;;;;;;;;15.80;14.40;;;;;22.63;48.44;99383.19;4924457;29;8862;-85
2023/06/25 09:31:21;;;;;;;;;14.60;13.60;;;;;22.28;49.02;99392.84;4894970;29;8908;-86
2023/06/25 09:33:52;;;;;;;;;14.20;14.20;;;;;22.50;49.57;99385.91;4895798;29;8882;-85
2023/06/25 09:36:21;;;;;;;;;16.20;15.20;;;;;22.47;49.63;99389.69;4910363;29;8885;-84
2023/06/25 09:39:30;;;;;;;;;17.60;16.80;;;;;22.28;50.21;99391.97;4895035;29;8876;-84
2023/06/25 09:42:02;;;;;;;;;15.60;15.60;;;;;22.63;49.10;99389.41;4899766;29;8843;-84
2023/06/25 09:44:39;;;;;;;;;15.20;15.00;;;;;22.70;49.46;99381.78;4910171;29;8881;-85
2023/06/25 09:47:14;;;;;;;;;16.40;16.40;;;;;22.73;49.03;99384.22;4802907;29;8908;-83
2023/06/25 09:49:51;;;;;;;;;14.40;14.20;;;;;22.71;48.77;99386.16;4787180;29;8912;-84
2023/06/25 09:52:24;;;;;;;;;16.60;15.60;;;;;22.72;48.64;99390.56;4788164;29;8928;-86
2023/06/25 09:54:53;;;;;;;;;17.20;14.60;;;;;22.80;49.18;99380.94;4773550;29;8904;-86
2023/06/25 09:57:25;;;;;;;;;18.00;16.00;;;;;22.64;48.20;99388.44;4792983;29;9010;-86
2023/06/25 09:59:56;;;;;;;;;15.60;15.60;;;;;22.38;50.10;99387.69;4815749;29;8892;-84
2023/06/25 10:02:26;;;;;;;;;14.60;13.40;;;;;22.23;50.41;99387.78;4789367;29;8896;-87
2023/06/25 10:04:57;;;;;;;;;16.20;16.20;;;;;21.80;51.18;99390.00;4801525;29;9014;-89
2023/06/25 10:07:26;;;;;;;;;11.60;11.60;;;;;21.78;51.56;99382.06;4808197;29;8884;-86
2023/06/25 10:09:56;;;;;;;;;16.00;16.00;;;;;22.06;50.76;99389.97;4802004;29;8891;-86
2023/06/25 10:12:26;;;;;;;;;15.00;15.00;;;;;21.38;53.02;99391.97;4852459;29;8891;-84
2023/06/25 10:15:01;;;;;;;;;14.00;13.00;;;;;21.40;52.97;99390.91;4860332;29;9025;-86
2023/06/25 10:17:33;;;;;;;;;16.60;15.80;;;;;21.39;52.41;99381.19;4873287;29;8883;-85
2023/06/25 10:20:05;;;;;;;;;17.60;17.20;;;;;21.49;52.36;99380.56;4929882;29;8968;-84
2023/06/25 10:22:43;;;;;;;;;13.60;13.00;;;;;21.32;52.52;99381.72;4918540;29;8868;-85
2023/06/25 10:25:29;;;;;;;;;12.20;12.20;;;;;21.04;53.45;99373.75;4901774;29;8895;-86
2023/06/25 10:28:06;;;;;;;;;14.40;12.80;;;;;21.58;52.37;99382.59;4883718;29;8914;-87
2023/06/25 10:30:50;;;;;;;;;16.20;15.40;;;;;21.63;51.96;99377.78;4912075;29;8978;-86
2023/06/25 10:33:26;;;;;;;;;13.20;12.20;;;;;21.25;53.51;99383.94;4896660;29;8994;-86
2023/06/25 10:35:58;;;;;;;;;15.60;15.00;;;;;21.80;51.75;99371.25;4867928;29;8926;-85
2023/06/25 10:38:31;;;;;;;;;13.40;13.40;;;;;22.19;51.02;99377.41;4898256;29;8851;-86
2023/06/25 10:41:01;;;;;;;;;15.60;14.80;;;;;22.03;51.44;99383.88;4902948;29;8871;-87
2023/06/25 10:43:31;;;;;;;;;17.00;14.40;;;;;21.93;51.69;99379.28;4913599;29;8936;-87
2023/06/25 10:46:03;;;;;;;;;18.60;18.60;;;;;22.16;51.65;99373.13;4885504;29;9017;-87
2023/06/25 10:48:56;;;;;;;;;18.40;17.60;;;;;21.57;52.92;99371.03;4864372;29;9160;-86
2023/06/25 10:51:26;;;;;;;;;16.20;16.20;;;;;21.53;54.00;99372.19;4879746;29;8881;-86
2023/06/25 10:53:57;;;;;;;;;18.00;18.00;;;;;21.58;54.28;99366.53;4878630;29;8916;-86
2023/06/25 10:56:26;;;;;;;;;21.60;19.00;;;;;21.59;54.69;99371.78;4878832;29;9655;-86
2023/06/25 10:59:00;;;;;;;;;15.80;15.80;;;;;21.68;53.50;99372.13;4878887;29;8984;-87
2023/06/25 11:01:35;;;;;;;;;20.20;19.40;;;;;21.56;53.60;99369.31;4861592;29;8895;-88
2023/06/25 11:04:14;;;;;;;;;17.80;17.80;;;;;21.68;53.26;99372.13;4874823;29;8984;-86
2023/06/25 11:06:53;;;;;;;;;15.60;14.80;;;;;22.11;52.50;99375.28;4859556;29;8868;-86
2023/06/25 11:09:24;;;;;;;;;17.80;17.80;;;;;22.15;52.22;99375.94;4874833;29;8892;-86
2023/06/25 11:11:53;;;;;;;;;17.80;16.80;;;;;22.00;51.94;99364.50;4879584;29;8872;-84
2023/06/25 11:14:24;;;;;;;;;20.00;18.80;;;;;21.82;53.34;99359.50;4898429;29;8881;-85
2023/06/25 11:16:56;;;;;;;;;21.40;17.20;;;;;22.07;52.28;99362.22;4899889;29;8857;-87
2023/06/25 11:19:26;;;;;;;;;19.80;19.00;;;;;21.75;53.20;99358.22;4904999;29;8871;-86
2023/06/25 11:21:55;;;;;;;;;22.60;22.20;;;;;21.39;54.11;99357.13;4935302;29;8858;-86
2023/06/25 11:24:25;;;;;;;;;20.60;19.00;;;;;21.84;53.21;99357.56;4918934;29;8870;-88
2023/06/25 11:26:59;;;;;;;;;17.20;17.20;;;;;21.86;54.08;99354.75;4934616;29;8870;-86
2023/06/25 11:29:37;;;;;;;;;19.20;17.80;;;;;21.80;53.79;99350.69;4934611;29;8886;-84
2023/06/25 11:32:11;;;;;;;;;21.00;19.80;;;;;21.46;54.36;99360.22;4934458;29;8925;-87
2023/06/25 11:34:45;;;;;;;;;19.60;18.60;;;;;21.30;55.68;99351.56;4936133;29;9028;-89
2023/06/25 11:37:18;;;;;;;;;16.00;16.00;;;;;21.64;53.37;99348.25;4936525;29;8900;-87
2023/06/25 11:39:48;;;;;;;;;20.40;18.60;;;;;21.60;54.83;99343.25;4933931;29;8908;-85
2023/06/25 11:42:20;;;;;;;;;17.80;17.00;;;;;21.56;54.83;99342.59;4935636;29;8948;-87
2023/06/25 11:45:00;;;;;;;;;22.20;20.20;;;;;21.40;54.77;99341.94;4935042;29;9037;-87
2023/06/25 11:47:31;;;;;;;;;18.80;18.80;;;;;21.59;54.02;99338.81;4936174;29;8879;-92
2023/06/25 11:50:03;;;;;;;;;16.40;15.20;;;;;21.55;53.72;99340.00;4936377;29;8858;-87
2023/06/25 11:52:36;;;;;;;;;12.60;12.60;;;;;21.64;52.82;99328.69;4932395;29;9279;-86
2023/06/25 11:55:07;;;;;;;;;16.40;16.40;;;;;21.91;52.20;99323.19;4917175;29;8910;-83